sensor_id;sensor_type;location;lat;lon;timestamp;P1;durP1;ratioP1;P2;durP2;ratioP2
62707;SDS011;48769;51.624;5.886;2023-08-06T00:01:23;9.45;;;6.15;;
62707;SDS011;48769;51.624;5.886;2023-08-06T00:03:49;6.55;;;5.18;;
62707;SDS011;48769;51.624;5.886;2023-08-06T00:06:14;9.65;;;6.10;;
62707;SDS011;48769;51.624;5.886;2023-08-06T00:08:39;7.47;;;5.85;;
62707;SDS011;48769;51.624;5.886;2023-08-06T00:11:05;7.75;;;5.85;;
62707;SDS011;48769;51.624;5.886;2023-08-06T00:13:30;7.32;;;5.68;;
62707;SDS011;48769;51.624;5.886;2023-08-06T00:15:55;10.88;;;5.95;;
62707;SDS011;48769;51.624;5.886;2023-08-06T00:18:20;8.05;;;5.43;;
62707;SDS011;48769;51.624;5.886;2023-08-06T00:20:46;10.60;;;6.10;;
62707;SDS011;48769;51.624;5.886;2023-08-06T00:23:11;10.70;;;6.30;;
62707;SDS011;48769;51.624;5.886;2023-08-06T00:25:36;9.52;;;6.18;;
62707;SDS011;48769;51.624;5.886;2023-08-06T00:28:02;9.02;;;6.03;;
62707;SDS011;48769;51.624;5.886;2023-08-06T00:30:27;9.40;;;5.80;;
62707;SDS011;48769;51.624;5.886;2023-08-06T00:32:53;7.50;;;5.93;;
62707;SDS011;48769;51.624;5.886;2023-08-06T00:35:18;6.90;;;5.43;;
62707;SDS011;48769;51.624;5.886;2023-08-06T00:37:43;9.60;;;5.93;;
62707;SDS011;48769;51.624;5.886;2023-08-06T00:40:08;7.65;;;6.00;;
62707;SDS011;48769;51.624;5.886;2023-08-06T00:42:34;6.35;;;5.47;;
62707;SDS011;48769;51.624;5.886;2023-08-06T00:45:00;5.80;;;5.18;;
62707;SDS011;48769;51.624;5.886;2023-08-06T00:47:25;10.65;;;5.50;;
62707;SDS011;48769;51.624;5.886;2023-08-06T00:49:51;8.13;;;5.65;;
62707;SDS011;48769;51.624;5.886;2023-08-06T00:52:16;7.82;;;5.38;;
62707;SDS011;48769;51.624;5.886;2023-08-06T00:54:42;7.05;;;4.85;;
62707;SDS011;48769;51.624;5.886;2023-08-06T00:57:08;6.15;;;5.20;;
62707;SDS011;48769;51.624;5.886;2023-08-06T00:59:34;8.63;;;5.53;;
62707;SDS011;48769;51.624;5.886;2023-08-06T01:02:00;11.55;;;5.75;;
62707;SDS011;48769;51.624;5.886;2023-08-06T01:04:25;8.27;;;5.50;;
62707;SDS011;48769;51.624;5.886;2023-08-06T01:10:11;11.05;;;5.43;;
62707;SDS011;48769;51.624;5.886;2023-08-06T01:15:52;7.30;;;4.95;;
62707;SDS011;48769;51.624;5.886;2023-08-06T01:18:22;7.38;;;5.05;;
62707;SDS011;48769;51.624;5.886;2023-08-06T01:20:47;9.40;;;5.25;;
62707;SDS011;48769;51.624;5.886;2023-08-06T01:23:14;7.30;;;4.75;;
62707;SDS011;48769;51.624;5.886;2023-08-06T01:25:43;6.78;;;4.72;;
62707;SDS011;48769;51.624;5.886;2023-08-06T01:28:20;7.43;;;4.65;;
62707;SDS011;48769;51.624;5.886;2023-08-06T01:31:03;11.93;;;4.78;;
62707;SDS011;48769;51.624;5.886;2023-08-06T01:33:32;5.68;;;4.03;;
62707;SDS011;48769;51.624;5.886;2023-08-06T01:35:59;7.72;;;5.03;;
62707;SDS011;48769;51.624;5.886;2023-08-06T01:38:26;5.80;;;4.65;;
62707;SDS011;48769;51.624;5.886;2023-08-06T01:40:53;11.10;;;5.40;;
62707;SDS011;48769;51.624;5.886;2023-08-06T01:43:25;5.25;;;4.50;;
62707;SDS011;48769;51.624;5.886;2023-08-06T01:45:50;8.70;;;4.43;;
62707;SDS011;48769;51.624;5.886;2023-08-06T01:48:15;6.80;;;4.85;;
62707;SDS011;48769;51.624;5.886;2023-08-06T01:50:40;7.97;;;4.80;;
62707;SDS011;48769;51.624;5.886;2023-08-06T01:53:06;7.82;;;4.45;;
62707;SDS011;48769;51.624;5.886;2023-08-06T01:55:31;6.78;;;5.28;;
62707;SDS011;48769;51.624;5.886;2023-08-06T01:58:02;7.28;;;4.63;;
62707;SDS011;48769;51.624;5.886;2023-08-06T02:00:28;10.90;;;5.78;;
62707;SDS011;48769;51.624;5.886;2023-08-06T02:02:53;7.10;;;4.97;;
62707;SDS011;48769;51.624;5.886;2023-08-06T02:05:19;8.10;;;5.70;;
62707;SDS011;48769;51.624;5.886;2023-08-06T02:07:44;11.23;;;5.78;;
62707;SDS011;48769;51.624;5.886;2023-08-06T02:10:13;9.77;;;4.97;;
62707;SDS011;48769;51.624;5.886;2023-08-06T02:12:38;7.30;;;5.93;;
62707;SDS011;48769;51.624;5.886;2023-08-06T02:15:03;10.43;;;6.18;;
62707;SDS011;48769;51.624;5.886;2023-08-06T02:17:29;9.18;;;6.18;;
62707;SDS011;48769;51.624;5.886;2023-08-06T02:19:54;9.45;;;6.45;;
62707;SDS011;48769;51.624;5.886;2023-08-06T02:22:20;13.05;;;6.80;;
62707;SDS011;48769;51.624;5.886;2023-08-06T02:24:45;9.30;;;7.25;;
62707;SDS011;48769;51.624;5.886;2023-08-06T02:27:10;9.40;;;6.68;;
62707;SDS011;48769;51.624;5.886;2023-08-06T02:29:36;11.80;;;7.78;;
62707;SDS011;48769;51.624;5.886;2023-08-06T02:32:01;11.60;;;7.20;;
62707;SDS011;48769;51.624;5.886;2023-08-06T02:34:27;12.73;;;7.53;;
62707;SDS011;48769;51.624;5.886;2023-08-06T02:36:52;10.50;;;7.20;;
62707;SDS011;48769;51.624;5.886;2023-08-06T02:39:18;15.98;;;8.18;;
62707;SDS011;48769;51.624;5.886;2023-08-06T02:41:44;14.40;;;7.60;;
62707;SDS011;48769;51.624;5.886;2023-08-06T02:44:09;12.10;;;7.78;;
62707;SDS011;48769;51.624;5.886;2023-08-06T02:46:34;9.68;;;7.93;;
62707;SDS011;48769;51.624;5.886;2023-08-06T02:49:00;14.48;;;8.02;;
62707;SDS011;48769;51.624;5.886;2023-08-06T02:51:25;11.80;;;7.43;;
62707;SDS011;48769;51.624;5.886;2023-08-06T02:53:50;14.70;;;7.53;;
62707;SDS011;48769;51.624;5.886;2023-08-06T02:56:16;12.55;;;6.50;;
62707;SDS011;48769;51.624;5.886;2023-08-06T02:58:41;9.13;;;7.18;;
62707;SDS011;48769;51.624;5.886;2023-08-06T03:01:06;14.73;;;6.40;;
62707;SDS011;48769;51.624;5.886;2023-08-06T03:03:32;8.20;;;6.60;;
62707;SDS011;48769;51.624;5.886;2023-08-06T03:05:58;7.10;;;6.10;;
62707;SDS011;48769;51.624;5.886;2023-08-06T03:08:24;8.40;;;6.47;;
62707;SDS011;48769;51.624;5.886;2023-08-06T03:10:50;8.88;;;7.22;;
62707;SDS011;48769;51.624;5.886;2023-08-06T03:13:19;8.77;;;6.40;;
62707;SDS011;48769;51.624;5.886;2023-08-06T03:16:00;11.23;;;6.10;;
62707;SDS011;48769;51.624;5.886;2023-08-06T03:18:25;9.63;;;6.43;;
62707;SDS011;48769;51.624;5.886;2023-08-06T03:20:51;6.68;;;6.05;;
62707;SDS011;48769;51.624;5.886;2023-08-06T03:23:17;8.52;;;5.60;;
62707;SDS011;48769;51.624;5.886;2023-08-06T03:25:43;9.68;;;5.30;;
62707;SDS011;48769;51.624;5.886;2023-08-06T03:28:08;8.80;;;5.72;;
62707;SDS011;48769;51.624;5.886;2023-08-06T03:30:34;9.75;;;5.97;;
62707;SDS011;48769;51.624;5.886;2023-08-06T03:32:59;7.82;;;5.47;;
62707;SDS011;48769;51.624;5.886;2023-08-06T03:35:24;7.18;;;5.05;;
62707;SDS011;48769;51.624;5.886;2023-08-06T03:37:50;7.65;;;4.72;;
62707;SDS011;48769;51.624;5.886;2023-08-06T03:40:15;7.45;;;5.15;;
62707;SDS011;48769;51.624;5.886;2023-08-06T03:42:40;8.38;;;5.10;;
62707;SDS011;48769;51.624;5.886;2023-08-06T03:45:06;10.43;;;6.18;;
62707;SDS011;48769;51.624;5.886;2023-08-06T03:47:32;7.95;;;5.57;;
62707;SDS011;48769;51.624;5.886;2023-08-06T03:49:57;17.33;;;6.30;;
62707;SDS011;48769;51.624;5.886;2023-08-06T03:52:23;12.52;;;6.30;;
62707;SDS011;48769;51.624;5.886;2023-08-06T03:54:48;9.88;;;6.28;;
62707;SDS011;48769;51.624;5.886;2023-08-06T03:57:14;7.90;;;6.68;;
62707;SDS011;48769;51.624;5.886;2023-08-06T03:59:39;8.48;;;6.88;;
62707;SDS011;48769;51.624;5.886;2023-08-06T04:02:04;11.93;;;6.80;;
62707;SDS011;48769;51.624;5.886;2023-08-06T04:04:30;12.02;;;6.78;;
62707;SDS011;48769;51.624;5.886;2023-08-06T04:06:55;15.50;;;7.28;;
62707;SDS011;48769;51.624;5.886;2023-08-06T04:09:20;7.90;;;7.03;;
62707;SDS011;48769;51.624;5.886;2023-08-06T04:11:45;12.82;;;7.60;;
62707;SDS011;48769;51.624;5.886;2023-08-06T04:14:11;10.73;;;7.90;;
62707;SDS011;48769;51.624;5.886;2023-08-06T04:16:36;15.02;;;8.52;;
62707;SDS011;48769;51.624;5.886;2023-08-06T04:19:01;10.70;;;7.63;;
62707;SDS011;48769;51.624;5.886;2023-08-06T04:21:27;13.15;;;8.80;;
62707;SDS011;48769;51.624;5.886;2023-08-06T04:23:52;13.07;;;9.30;;
62707;SDS011;48769;51.624;5.886;2023-08-06T04:26:18;13.15;;;9.52;;
62707;SDS011;48769;51.624;5.886;2023-08-06T04:28:43;10.70;;;9.35;;
62707;SDS011;48769;51.624;5.886;2023-08-06T04:31:08;14.30;;;9.50;;
62707;SDS011;48769;51.624;5.886;2023-08-06T04:33:34;14.80;;;9.43;;
62707;SDS011;48769;51.624;5.886;2023-08-06T04:35:59;13.65;;;9.18;;
62707;SDS011;48769;51.624;5.886;2023-08-06T04:38:24;13.35;;;10.82;;
62707;SDS011;48769;51.624;5.886;2023-08-06T04:40:50;14.30;;;10.93;;
62707;SDS011;48769;51.624;5.886;2023-08-06T04:43:16;16.10;;;10.32;;
62707;SDS011;48769;51.624;5.886;2023-08-06T04:45:48;14.02;;;9.82;;
62707;SDS011;48769;51.624;5.886;2023-08-06T04:48:14;21.73;;;10.57;;
62707;SDS011;48769;51.624;5.886;2023-08-06T04:50:46;15.68;;;10.70;;
62707;SDS011;48769;51.624;5.886;2023-08-06T04:53:13;12.40;;;10.13;;
62707;SDS011;48769;51.624;5.886;2023-08-06T04:55:39;16.60;;;10.90;;
62707;SDS011;48769;51.624;5.886;2023-08-06T04:58:04;12.32;;;9.93;;
62707;SDS011;48769;51.624;5.886;2023-08-06T05:00:30;14.55;;;10.75;;
62707;SDS011;48769;51.624;5.886;2023-08-06T05:02:55;15.23;;;10.63;;
62707;SDS011;48769;51.624;5.886;2023-08-06T05:05:20;18.15;;;10.98;;
62707;SDS011;48769;51.624;5.886;2023-08-06T05:07:48;16.52;;;11.05;;
62707;SDS011;48769;51.624;5.886;2023-08-06T05:10:14;15.35;;;10.40;;
62707;SDS011;48769;51.624;5.886;2023-08-06T05:12:40;16.17;;;12.00;;
62707;SDS011;48769;51.624;5.886;2023-08-06T05:15:05;15.07;;;11.10;;
62707;SDS011;48769;51.624;5.886;2023-08-06T05:17:31;17.75;;;11.05;;
62707;SDS011;48769;51.624;5.886;2023-08-06T05:19:56;16.58;;;11.30;;
62707;SDS011;48769;51.624;5.886;2023-08-06T05:22:21;16.00;;;10.80;;
62707;SDS011;48769;51.624;5.886;2023-08-06T05:24:47;17.23;;;11.27;;
62707;SDS011;48769;51.624;5.886;2023-08-06T05:27:12;20.02;;;12.15;;
62707;SDS011;48769;51.624;5.886;2023-08-06T05:29:37;14.20;;;11.95;;
62707;SDS011;48769;51.624;5.886;2023-08-06T05:32:03;17.23;;;11.73;;
62707;SDS011;48769;51.624;5.886;2023-08-06T05:34:28;16.23;;;14.05;;
62707;SDS011;48769;51.624;5.886;2023-08-06T05:36:53;16.70;;;12.73;;
62707;SDS011;48769;51.624;5.886;2023-08-06T05:39:19;25.75;;;15.98;;
62707;SDS011;48769;51.624;5.886;2023-08-06T05:41:44;21.67;;;15.05;;
62707;SDS011;48769;51.624;5.886;2023-08-06T05:44:09;20.63;;;16.00;;
62707;SDS011;48769;51.624;5.886;2023-08-06T05:46:35;25.83;;;17.00;;
62707;SDS011;48769;51.624;5.886;2023-08-06T05:49:00;19.85;;;15.88;;
62707;SDS011;48769;51.624;5.886;2023-08-06T05:51:26;21.45;;;16.70;;
62707;SDS011;48769;51.624;5.886;2023-08-06T05:53:52;22.83;;;17.77;;
62707;SDS011;48769;51.624;5.886;2023-08-06T05:56:17;18.02;;;15.10;;
62707;SDS011;48769;51.624;5.886;2023-08-06T05:58:42;20.90;;;16.88;;
62707;SDS011;48769;51.624;5.886;2023-08-06T06:01:08;20.73;;;17.70;;
62707;SDS011;48769;51.624;5.886;2023-08-06T06:03:33;24.98;;;17.85;;
62707;SDS011;48769;51.624;5.886;2023-08-06T06:05:59;22.30;;;17.25;;
62707;SDS011;48769;51.624;5.886;2023-08-06T06:08:26;24.30;;;18.98;;
62707;SDS011;48769;51.624;5.886;2023-08-06T06:10:51;19.75;;;17.52;;
62707;SDS011;48769;51.624;5.886;2023-08-06T06:13:17;24.63;;;17.05;;
62707;SDS011;48769;51.624;5.886;2023-08-06T06:15:42;18.60;;;16.40;;
62707;SDS011;48769;51.624;5.886;2023-08-06T06:18:07;19.10;;;16.02;;
62707;SDS011;48769;51.624;5.886;2023-08-06T06:20:33;20.20;;;14.90;;
62707;SDS011;48769;51.624;5.886;2023-08-06T06:22:58;20.60;;;15.95;;
62707;SDS011;48769;51.624;5.886;2023-08-06T06:25:24;20.17;;;14.43;;
62707;SDS011;48769;51.624;5.886;2023-08-06T06:27:49;20.35;;;14.10;;
62707;SDS011;48769;51.624;5.886;2023-08-06T06:30:14;24.80;;;13.68;;
62707;SDS011;48769;51.624;5.886;2023-08-06T06:32:40;17.27;;;12.60;;
62707;SDS011;48769;51.624;5.886;2023-08-06T06:35:05;17.20;;;12.93;;
62707;SDS011;48769;51.624;5.886;2023-08-06T06:37:31;21.23;;;12.45;;
62707;SDS011;48769;51.624;5.886;2023-08-06T06:39:56;16.52;;;12.60;;
62707;SDS011;48769;51.624;5.886;2023-08-06T06:42:22;19.45;;;13.77;;
62707;SDS011;48769;51.624;5.886;2023-08-06T06:44:47;16.58;;;12.73;;
62707;SDS011;48769;51.624;5.886;2023-08-06T06:47:13;12.30;;;11.00;;
62707;SDS011;48769;51.624;5.886;2023-08-06T06:49:39;14.40;;;11.63;;
62707;SDS011;48769;51.624;5.886;2023-08-06T06:52:04;15.43;;;11.25;;
62707;SDS011;48769;51.624;5.886;2023-08-06T06:54:30;13.50;;;10.93;;
62707;SDS011;48769;51.624;5.886;2023-08-06T06:56:55;13.57;;;10.27;;
62707;SDS011;48769;51.624;5.886;2023-08-06T06:59:20;12.50;;;9.50;;
62707;SDS011;48769;51.624;5.886;2023-08-06T07:01:46;12.32;;;8.43;;
62707;SDS011;48769;51.624;5.886;2023-08-06T07:04:11;15.75;;;9.25;;
62707;SDS011;48769;51.624;5.886;2023-08-06T07:06:36;10.48;;;7.63;;
62707;SDS011;48769;51.624;5.886;2023-08-06T07:09:02;12.57;;;7.80;;
62707;SDS011;48769;51.624;5.886;2023-08-06T07:11:28;11.52;;;8.73;;
62707;SDS011;48769;51.624;5.886;2023-08-06T07:13:56;14.20;;;8.55;;
62707;SDS011;48769;51.624;5.886;2023-08-06T07:16:25;10.35;;;8.43;;
62707;SDS011;48769;51.624;5.886;2023-08-06T07:18:51;12.75;;;7.63;;
62707;SDS011;48769;51.624;5.886;2023-08-06T07:21:17;10.80;;;7.93;;
62707;SDS011;48769;51.624;5.886;2023-08-06T07:23:43;10.77;;;8.38;;
62707;SDS011;48769;51.624;5.886;2023-08-06T07:26:08;10.32;;;7.20;;
62707;SDS011;48769;51.624;5.886;2023-08-06T07:28:34;9.57;;;8.40;;
62707;SDS011;48769;51.624;5.886;2023-08-06T07:31:00;11.27;;;9.63;;
62707;SDS011;48769;51.624;5.886;2023-08-06T07:33:25;11.70;;;10.18;;
62707;SDS011;48769;51.624;5.886;2023-08-06T07:35:50;13.85;;;10.68;;
62707;SDS011;48769;51.624;5.886;2023-08-06T07:38:16;16.83;;;11.90;;
62707;SDS011;48769;51.624;5.886;2023-08-06T07:40:41;13.23;;;11.13;;
62707;SDS011;48769;51.624;5.886;2023-08-06T07:43:07;16.10;;;12.13;;
62707;SDS011;48769;51.624;5.886;2023-08-06T07:45:35;16.83;;;11.98;;
62707;SDS011;48769;51.624;5.886;2023-08-06T07:48:01;18.15;;;13.32;;
62707;SDS011;48769;51.624;5.886;2023-08-06T07:50:27;15.77;;;11.98;;
62707;SDS011;48769;51.624;5.886;2023-08-06T07:52:52;16.20;;;12.85;;
62707;SDS011;48769;51.624;5.886;2023-08-06T07:55:17;13.02;;;11.45;;
62707;SDS011;48769;51.624;5.886;2023-08-06T07:57:43;16.13;;;13.27;;
62707;SDS011;48769;51.624;5.886;2023-08-06T08:00:08;16.60;;;13.75;;
62707;SDS011;48769;51.624;5.886;2023-08-06T08:02:34;19.10;;;13.75;;
62707;SDS011;48769;51.624;5.886;2023-08-06T08:05:00;17.15;;;14.23;;
62707;SDS011;48769;51.624;5.886;2023-08-06T08:07:25;22.55;;;14.13;;
62707;SDS011;48769;51.624;5.886;2023-08-06T08:09:53;16.23;;;13.98;;
62707;SDS011;48769;51.624;5.886;2023-08-06T08:12:18;19.95;;;14.18;;
62707;SDS011;48769;51.624;5.886;2023-08-06T08:14:44;16.83;;;14.73;;
62707;SDS011;48769;51.624;5.886;2023-08-06T08:17:10;18.83;;;14.57;;
62707;SDS011;48769;51.624;5.886;2023-08-06T08:19:36;23.77;;;16.20;;
62707;SDS011;48769;51.624;5.886;2023-08-06T08:22:01;20.50;;;15.85;;
62707;SDS011;48769;51.624;5.886;2023-08-06T08:24:26;22.30;;;15.90;;
62707;SDS011;48769;51.624;5.886;2023-08-06T08:26:52;19.10;;;15.95;;
62707;SDS011;48769;51.624;5.886;2023-08-06T08:29:18;16.30;;;13.90;;
62707;SDS011;48769;51.624;5.886;2023-08-06T08:31:44;16.67;;;10.35;;
62707;SDS011;48769;51.624;5.886;2023-08-06T08:34:10;19.83;;;11.23;;
62707;SDS011;48769;51.624;5.886;2023-08-06T08:36:35;22.98;;;13.25;;
62707;SDS011;48769;51.624;5.886;2023-08-06T08:39:01;19.27;;;12.20;;
62707;SDS011;48769;51.624;5.886;2023-08-06T08:41:29;17.80;;;15.18;;
62707;SDS011;48769;51.624;5.886;2023-08-06T08:43:56;19.30;;;14.50;;
62707;SDS011;48769;51.624;5.886;2023-08-06T08:46:24;17.95;;;14.70;;
62707;SDS011;48769;51.624;5.886;2023-08-06T08:48:55;19.63;;;15.60;;
62707;SDS011;48769;51.624;5.886;2023-08-06T08:51:22;20.83;;;15.77;;
62707;SDS011;48769;51.624;5.886;2023-08-06T08:53:48;17.33;;;14.43;;
62707;SDS011;48769;51.624;5.886;2023-08-06T08:56:15;19.38;;;16.13;;
62707;SDS011;48769;51.624;5.886;2023-08-06T08:58:41;15.93;;;12.85;;
62707;SDS011;48769;51.624;5.886;2023-08-06T09:01:07;12.55;;;11.23;;
62707;SDS011;48769;51.624;5.886;2023-08-06T09:03:33;10.07;;;9.07;;
62707;SDS011;48769;51.624;5.886;2023-08-06T09:06:01;4.82;;;4.35;;
62707;SDS011;48769;51.624;5.886;2023-08-06T09:08:30;4.40;;;3.65;;
62707;SDS011;48769;51.624;5.886;2023-08-06T09:11:01;4.10;;;2.92;;
62707;SDS011;48769;51.624;5.886;2023-08-06T09:13:27;4.18;;;2.58;;
62707;SDS011;48769;51.624;5.886;2023-08-06T09:15:53;7.15;;;2.65;;
62707;SDS011;48769;51.624;5.886;2023-08-06T09:18:28;4.10;;;2.70;;
62707;SDS011;48769;51.624;5.886;2023-08-06T09:20:55;4.88;;;3.20;;
62707;SDS011;48769;51.624;5.886;2023-08-06T09:23:27;4.35;;;3.58;;
62707;SDS011;48769;51.624;5.886;2023-08-06T09:25:54;4.85;;;3.97;;
62707;SDS011;48769;51.624;5.886;2023-08-06T09:28:20;5.93;;;4.22;;
62707;SDS011;48769;51.624;5.886;2023-08-06T09:30:46;8.27;;;4.50;;
62707;SDS011;48769;51.624;5.886;2023-08-06T09:33:14;7.10;;;4.95;;
62707;SDS011;48769;51.624;5.886;2023-08-06T09:35:43;6.18;;;4.97;;
62707;SDS011;48769;51.624;5.886;2023-08-06T09:38:09;6.03;;;5.22;;
62707;SDS011;48769;51.624;5.886;2023-08-06T09:40:36;6.75;;;5.32;;
62707;SDS011;48769;51.624;5.886;2023-08-06T09:43:02;6.13;;;5.53;;
62707;SDS011;48769;51.624;5.886;2023-08-06T09:45:35;5.95;;;5.32;;
62707;SDS011;48769;51.624;5.886;2023-08-06T09:48:05;7.03;;;5.75;;
62707;SDS011;48769;51.624;5.886;2023-08-06T09:50:32;7.07;;;5.90;;
62707;SDS011;48769;51.624;5.886;2023-08-06T09:53:01;10.60;;;7.13;;
62707;SDS011;48769;51.624;5.886;2023-08-06T09:55:27;10.60;;;7.40;;
62707;SDS011;48769;51.624;5.886;2023-08-06T09:57:53;8.65;;;7.18;;
62707;SDS011;48769;51.624;5.886;2023-08-06T10:00:19;10.60;;;8.52;;
62707;SDS011;48769;51.624;5.886;2023-08-06T10:02:45;10.35;;;8.70;;
62707;SDS011;48769;51.624;5.886;2023-08-06T10:05:11;10.45;;;9.35;;
62707;SDS011;48769;51.624;5.886;2023-08-06T10:07:37;13.63;;;9.82;;
62707;SDS011;48769;51.624;5.886;2023-08-06T10:10:06;11.15;;;9.35;;
62707;SDS011;48769;51.624;5.886;2023-08-06T10:12:46;12.38;;;8.57;;
62707;SDS011;48769;51.624;5.886;2023-08-06T10:15:14;12.30;;;9.10;;
62707;SDS011;48769;51.624;5.886;2023-08-06T10:17:42;10.98;;;7.78;;
62707;SDS011;48769;51.624;5.886;2023-08-06T10:20:10;9.45;;;8.55;;
62707;SDS011;48769;51.624;5.886;2023-08-06T10:22:38;10.20;;;7.85;;
62707;SDS011;48769;51.624;5.886;2023-08-06T10:25:09;10.70;;;8.67;;
62707;SDS011;48769;51.624;5.886;2023-08-06T10:27:35;11.70;;;8.43;;
62707;SDS011;48769;51.624;5.886;2023-08-06T10:32:54;8.85;;;7.53;;
62707;SDS011;48769;51.624;5.886;2023-08-06T10:35:30;8.95;;;7.72;;
62707;SDS011;48769;51.624;5.886;2023-08-06T10:38:02;10.52;;;8.18;;
62707;SDS011;48769;51.624;5.886;2023-08-06T10:40:29;11.43;;;7.75;;
62707;SDS011;48769;51.624;5.886;2023-08-06T10:42:56;9.55;;;7.50;;
62707;SDS011;48769;51.624;5.886;2023-08-06T10:45:23;10.45;;;7.70;;
62707;SDS011;48769;51.624;5.886;2023-08-06T10:47:53;11.88;;;7.90;;
62707;SDS011;48769;51.624;5.886;2023-08-06T10:50:19;11.77;;;7.75;;
62707;SDS011;48769;51.624;5.886;2023-08-06T10:52:45;9.10;;;7.93;;
62707;SDS011;48769;51.624;5.886;2023-08-06T10:55:11;10.20;;;8.45;;
62707;SDS011;48769;51.624;5.886;2023-08-06T10:57:37;11.10;;;7.82;;
62707;SDS011;48769;51.624;5.886;2023-08-06T11:00:06;9.90;;;7.68;;
62707;SDS011;48769;51.624;5.886;2023-08-06T11:02:36;10.05;;;8.20;;
62707;SDS011;48769;51.624;5.886;2023-08-06T11:05:08;10.07;;;8.13;;
62707;SDS011;48769;51.624;5.886;2023-08-06T11:07:34;13.43;;;7.35;;
62707;SDS011;48769;51.624;5.886;2023-08-06T11:10:01;10.88;;;7.95;;
62707;SDS011;48769;51.624;5.886;2023-08-06T11:12:28;10.20;;;7.22;;
62707;SDS011;48769;51.624;5.886;2023-08-06T11:14:54;12.60;;;7.53;;
62707;SDS011;48769;51.624;5.886;2023-08-06T11:17:20;10.63;;;7.05;;
62707;SDS011;48769;51.624;5.886;2023-08-06T11:19:46;10.90;;;6.93;;
62707;SDS011;48769;51.624;5.886;2023-08-06T11:22:11;8.27;;;6.20;;
62707;SDS011;48769;51.624;5.886;2023-08-06T11:24:37;10.90;;;6.65;;
62707;SDS011;48769;51.624;5.886;2023-08-06T11:27:10;9.93;;;6.90;;
62707;SDS011;48769;51.624;5.886;2023-08-06T11:29:37;6.93;;;5.90;;
62707;SDS011;48769;51.624;5.886;2023-08-06T11:32:03;7.18;;;5.60;;
62707;SDS011;48769;51.624;5.886;2023-08-06T11:34:30;10.80;;;6.20;;
62707;SDS011;48769;51.624;5.886;2023-08-06T11:36:56;6.65;;;5.38;;
62707;SDS011;48769;51.624;5.886;2023-08-06T11:39:22;9.23;;;5.50;;
62707;SDS011;48769;51.624;5.886;2023-08-06T11:41:47;9.75;;;5.43;;
62707;SDS011;48769;51.624;5.886;2023-08-06T11:44:13;8.48;;;5.65;;
62707;SDS011;48769;51.624;5.886;2023-08-06T11:46:57;7.07;;;5.07;;
62707;SDS011;48769;51.624;5.886;2023-08-06T11:52:18;6.38;;;5.32;;
62707;SDS011;48769;51.624;5.886;2023-08-06T11:54:46;7.53;;;4.70;;
62707;SDS011;48769;51.624;5.886;2023-08-06T11:57:13;6.55;;;5.03;;
62707;SDS011;48769;51.624;5.886;2023-08-06T11:59:39;7.28;;;4.53;;
62707;SDS011;48769;51.624;5.886;2023-08-06T12:02:05;6.22;;;5.07;;
62707;SDS011;48769;51.624;5.886;2023-08-06T12:07:29;6.97;;;4.85;;
62707;SDS011;48769;51.624;5.886;2023-08-06T12:09:56;9.25;;;5.05;;
62707;SDS011;48769;51.624;5.886;2023-08-06T12:12:22;8.15;;;5.75;;
62707;SDS011;48769;51.624;5.886;2023-08-06T12:14:47;7.38;;;5.18;;
62707;SDS011;48769;51.624;5.886;2023-08-06T12:17:13;7.35;;;5.22;;
62707;SDS011;48769;51.624;5.886;2023-08-06T12:19:38;7.90;;;4.43;;
62707;SDS011;48769;51.624;5.886;2023-08-06T12:22:03;7.82;;;4.90;;
62707;SDS011;48769;51.624;5.886;2023-08-06T12:24:29;13.20;;;5.20;;
62707;SDS011;48769;51.624;5.886;2023-08-06T12:26:56;10.50;;;5.13;;
62707;SDS011;48769;51.624;5.886;2023-08-06T12:29:25;7.00;;;4.03;;
62707;SDS011;48769;51.624;5.886;2023-08-06T12:31:50;9.98;;;4.28;;
62707;SDS011;48769;51.624;5.886;2023-08-06T12:34:16;9.13;;;4.35;;
62707;SDS011;48769;51.624;5.886;2023-08-06T12:36:41;7.07;;;3.85;;
62707;SDS011;48769;51.624;5.886;2023-08-06T12:39:06;8.60;;;4.38;;
62707;SDS011;48769;51.624;5.886;2023-08-06T12:41:32;8.20;;;4.15;;
62707;SDS011;48769;51.624;5.886;2023-08-06T12:43:57;9.82;;;3.55;;
62707;SDS011;48769;51.624;5.886;2023-08-06T12:46:22;9.55;;;4.30;;
62707;SDS011;48769;51.624;5.886;2023-08-06T12:48:48;9.02;;;4.20;;
62707;SDS011;48769;51.624;5.886;2023-08-06T12:51:13;7.97;;;4.40;;
62707;SDS011;48769;51.624;5.886;2023-08-06T12:53:39;10.75;;;4.60;;
62707;SDS011;48769;51.624;5.886;2023-08-06T12:56:04;6.95;;;4.10;;
62707;SDS011;48769;51.624;5.886;2023-08-06T12:58:30;8.23;;;4.75;;
62707;SDS011;48769;51.624;5.886;2023-08-06T13:00:56;6.15;;;4.07;;
62707;SDS011;48769;51.624;5.886;2023-08-06T13:03:21;10.68;;;4.80;;
62707;SDS011;48769;51.624;5.886;2023-08-06T13:05:47;9.73;;;4.32;;
62707;SDS011;48769;51.624;5.886;2023-08-06T13:08:12;9.55;;;4.63;;
62707;SDS011;48769;51.624;5.886;2023-08-06T13:10:37;9.15;;;4.97;;
62707;SDS011;48769;51.624;5.886;2023-08-06T13:13:03;10.25;;;4.93;;
62707;SDS011;48769;51.624;5.886;2023-08-06T13:15:28;6.10;;;4.35;;
62707;SDS011;48769;51.624;5.886;2023-08-06T13:17:54;11.60;;;5.45;;
62707;SDS011;48769;51.624;5.886;2023-08-06T13:20:19;12.60;;;5.30;;
62707;SDS011;48769;51.624;5.886;2023-08-06T13:22:45;6.68;;;4.35;;
62707;SDS011;48769;51.624;5.886;2023-08-06T13:25:11;7.57;;;4.75;;
62707;SDS011;48769;51.624;5.886;2023-08-06T13:27:39;5.75;;;4.28;;
62707;SDS011;48769;51.624;5.886;2023-08-06T13:30:04;13.30;;;5.93;;
62707;SDS011;48769;51.624;5.886;2023-08-06T13:32:30;11.35;;;4.90;;
62707;SDS011;48769;51.624;5.886;2023-08-06T13:34:57;9.27;;;5.22;;
62707;SDS011;48769;51.624;5.886;2023-08-06T13:37:22;8.30;;;5.30;;
62707;SDS011;48769;51.624;5.886;2023-08-06T13:39:48;7.95;;;4.88;;
62707;SDS011;48769;51.624;5.886;2023-08-06T13:42:13;7.32;;;4.85;;
62707;SDS011;48769;51.624;5.886;2023-08-06T13:44:38;9.57;;;5.10;;
62707;SDS011;48769;51.624;5.886;2023-08-06T13:47:04;9.82;;;5.00;;
62707;SDS011;48769;51.624;5.886;2023-08-06T13:49:29;6.55;;;4.00;;
62707;SDS011;48769;51.624;5.886;2023-08-06T13:51:54;8.30;;;3.95;;
62707;SDS011;48769;51.624;5.886;2023-08-06T13:54:20;6.97;;;3.88;;
62707;SDS011;48769;51.624;5.886;2023-08-06T13:56:46;5.93;;;3.47;;
62707;SDS011;48769;51.624;5.886;2023-08-06T13:59:11;6.10;;;3.83;;
62707;SDS011;48769;51.624;5.886;2023-08-06T14:01:38;7.93;;;3.70;;
62707;SDS011;48769;51.624;5.886;2023-08-06T14:04:03;6.97;;;3.15;;
62707;SDS011;48769;51.624;5.886;2023-08-06T14:06:29;11.52;;;4.10;;
62707;SDS011;48769;51.624;5.886;2023-08-06T14:08:55;5.57;;;3.28;;
62707;SDS011;48769;51.624;5.886;2023-08-06T14:11:20;6.38;;;3.72;;
62707;SDS011;48769;51.624;5.886;2023-08-06T14:13:46;5.28;;;3.45;;
62707;SDS011;48769;51.624;5.886;2023-08-06T14:16:12;3.72;;;3.00;;
62707;SDS011;48769;51.624;5.886;2023-08-06T14:18:37;4.97;;;3.05;;
62707;SDS011;48769;51.624;5.886;2023-08-06T14:21:03;6.05;;;3.10;;
62707;SDS011;48769;51.624;5.886;2023-08-06T14:23:29;5.40;;;3.25;;
62707;SDS011;48769;51.624;5.886;2023-08-06T14:25:54;4.68;;;3.30;;
62707;SDS011;48769;51.624;5.886;2023-08-06T14:28:19;4.47;;;2.92;;
62707;SDS011;48769;51.624;5.886;2023-08-06T14:30:45;5.18;;;3.33;;
62707;SDS011;48769;51.624;5.886;2023-08-06T14:33:10;5.15;;;3.33;;
62707;SDS011;48769;51.624;5.886;2023-08-06T14:35:35;8.18;;;3.95;;
62707;SDS011;48769;51.624;5.886;2023-08-06T14:38:01;5.95;;;3.10;;
62707;SDS011;48769;51.624;5.886;2023-08-06T14:40:26;6.03;;;3.25;;
62707;SDS011;48769;51.624;5.886;2023-08-06T14:42:58;5.65;;;3.20;;
62707;SDS011;48769;51.624;5.886;2023-08-06T14:45:23;5.88;;;3.60;;
62707;SDS011;48769;51.624;5.886;2023-08-06T14:47:49;4.97;;;3.17;;